createdAt,value
2022-11-20T00:03:29.752Z,18.55
2022-11-20T00:08:30.615Z,17.67
2022-11-20T00:13:32.924Z,17.88
2022-11-20T00:18:34.986Z,17.33
2022-11-20T00:23:35.998Z,18.42
2022-11-20T00:28:38.270Z,17.70
2022-11-20T00:33:39.191Z,17.23
2022-11-20T00:38:40.025Z,17.60
2022-11-20T00:43:42.460Z,17.27
2022-11-20T00:48:43.393Z,16.65
2022-11-20T00:53:44.704Z,18.10
2022-11-20T00:58:49.377Z,17.23
2022-11-20T01:03:52.325Z,15.15
2022-11-20T01:08:55.564Z,15.90
2022-11-20T01:13:59.740Z,16.50
2022-11-20T01:19:02.257Z,16.45
2022-11-20T01:24:04.176Z,16.25
2022-11-20T01:29:07.256Z,16.55
2022-11-20T01:34:11.050Z,15.05
2022-11-20T01:39:14.386Z,15.65
2022-11-20T01:44:19.600Z,15.95
2022-11-20T01:49:25.880Z,15.75
2022-11-20T01:54:31.883Z,16.45
2022-11-20T01:59:34.542Z,16.17
2022-11-20T02:04:35.543Z,15.88
2022-11-20T02:09:36.316Z,17.48
2022-11-20T02:14:38.470Z,15.32
2022-11-20T02:19:39.270Z,14.82
2022-11-20T02:24:41.833Z,15.25
2022-11-20T02:29:47.266Z,14.98
2022-11-20T02:34:48.136Z,15.73
2022-11-20T02:39:53.275Z,14.27
2022-11-20T02:44:54.056Z,14.98
2022-11-20T02:49:54.856Z,14.75
2022-11-20T02:54:56.990Z,14.98
2022-11-20T02:59:57.902Z,14.93
2022-11-20T03:04:58.742Z,14.00
2022-11-20T03:10:00.903Z,14.10
2022-11-20T03:15:01.708Z,13.13
2022-11-20T03:20:02.518Z,14.52
2022-11-20T03:25:05.429Z,14.52
2022-11-20T03:30:07.492Z,14.80
2022-11-20T03:35:09.085Z,15.27
2022-11-20T03:40:12.117Z,13.95
2022-11-20T03:45:13.304Z,14.68
2022-11-20T03:50:15.392Z,14.13
2022-11-20T03:55:17.699Z,14.40
2022-11-20T04:00:18.702Z,12.93
2022-11-20T04:05:19.524Z,13.35
2022-11-20T04:10:22.194Z,12.70
2022-11-20T04:15:22.989Z,12.63
2022-11-20T04:20:23.830Z,11.85
2022-11-20T04:25:25.937Z,13.35
2022-11-20T04:30:26.722Z,13.07
2022-11-20T04:35:27.576Z,11.68
2022-11-20T04:40:29.838Z,13.20
2022-11-20T04:45:30.643Z,13.70
2022-11-20T04:50:31.436Z,13.57
2022-11-20T04:55:33.548Z,12.88
2022-11-20T05:00:34.622Z,14.65
2022-11-20T05:05:35.943Z,13.45
2022-11-20T05:10:38.141Z,13.57
2022-11-20T05:15:38.896Z,14.90
2022-11-20T05:20:39.781Z,12.95
2022-11-20T05:25:41.922Z,13.55
2022-11-20T05:30:42.753Z,13.35
2022-11-20T05:35:43.598Z,13.57
2022-11-20T05:40:45.751Z,13.70
2022-11-20T05:45:54.133Z,13.52
2022-11-20T05:50:54.950Z,14.20
2022-11-20T05:56:01.131Z,12.07
2022-11-20T06:01:07.784Z,13.65
2022-11-20T06:06:09.064Z,12.70
2022-11-20T06:11:13.411Z,12.75
2022-11-20T06:16:16.683Z,12.80
2022-11-20T06:21:19.056Z,11.48
2022-11-20T06:26:23.327Z,12.32
2022-11-20T06:31:26.432Z,12.20
2022-11-20T06:36:27.206Z,11.27
2022-11-20T06:41:29.955Z,13.82
2022-11-20T06:46:30.751Z,12.98
2022-11-20T06:51:31.548Z,12.18
2022-11-20T06:56:33.775Z,11.55
2022-11-20T07:01:34.688Z,12.40
2022-11-20T07:06:35.507Z,13.27
2022-11-20T07:11:37.726Z,12.70
2022-11-20T07:16:38.496Z,12.50
2022-11-20T07:21:39.321Z,14.70
2022-11-20T07:26:41.449Z,13.45
2022-11-20T07:31:44.826Z,13.63
2022-11-20T07:36:45.666Z,15.60
2022-11-20T07:41:47.865Z,17.42
2022-11-20T07:46:48.723Z,15.80
2022-11-20T07:51:52.397Z,18.23
2022-11-20T07:56:55.967Z,17.15
2022-11-20T08:01:57.288Z,18.58
2022-11-20T08:06:58.290Z,19.98
2022-11-20T08:12:17.704Z,19.20
2022-11-20T08:17:18.566Z,19.95
2022-11-20T08:22:19.618Z,19.20
2022-11-20T08:27:21.931Z,18.02
2022-11-20T08:32:22.753Z,18.83
2022-11-20T08:37:23.678Z,19.55
2022-11-20T08:42:25.868Z,20.60
2022-11-20T08:47:26.703Z,19.15
2022-11-20T08:52:27.484Z,20.20
2022-11-20T08:57:29.723Z,18.88
2022-11-20T09:02:30.556Z,19.67
2022-11-20T09:07:32.209Z,17.92
2022-11-20T09:12:34.411Z,19.95
2022-11-20T09:17:35.221Z,18.83
2022-11-20T09:22:36.084Z,17.08
2022-11-20T09:27:38.336Z,17.05
2022-11-20T09:32:40.954Z,16.63
2022-11-20T09:37:41.933Z,16.02
2022-11-20T09:42:49.650Z,16.05
2022-11-20T09:48:12.996Z,15.50
2022-11-20T09:53:18.263Z,16.17
2022-11-20T09:58:30.445Z,16.88
2022-11-20T10:03:42.833Z,15.00
2022-11-20T10:08:47.792Z,14.88
2022-11-20T10:14:01.733Z,13.80
2022-11-20T10:19:20.720Z,14.32
2022-11-20T10:24:46.974Z,13.95
2022-11-20T10:30:01.530Z,12.25
2022-11-20T10:35:06.870Z,13.02
2022-11-20T10:40:22.594Z,13.13
2022-11-20T10:45:39.050Z,11.57
2022-11-20T10:50:46.699Z,10.77
2022-11-20T10:55:52.688Z,10.98
2022-11-20T11:01:05.721Z,10.50
2022-11-20T11:06:14.382Z,10.30
2022-11-20T11:11:23.561Z,11.40
2022-11-20T11:16:28.042Z,11.52
2022-11-20T11:21:28.845Z,11.07
2022-11-20T11:26:30.028Z,11.45
2022-11-20T11:31:33.829Z,9.82
2022-11-20T11:36:36.394Z,8.57
2022-11-20T11:41:37.406Z,9.15
2022-11-20T11:46:41.355Z,8.50
2022-11-20T11:51:55.188Z,7.80
2022-11-20T11:56:56.369Z,7.30
2022-11-20T12:02:02.914Z,6.60
2022-11-20T12:07:38.924Z,7.05
2022-11-20T12:12:39.098Z,7.88
2022-11-20T12:17:41.339Z,6.90
2022-11-20T12:22:52.486Z,7.55
2022-11-20T12:28:14.516Z,7.93
2022-11-20T12:33:32.579Z,8.60
2022-11-20T12:38:49.649Z,7.88
2022-11-20T12:44:25.028Z,7.72
2022-11-20T12:49:38.865Z,8.05
2022-11-20T12:55:05.150Z,7.32
2022-11-20T13:00:19.966Z,7.95
2022-11-20T13:05:26.594Z,6.78
2022-11-20T13:10:36.434Z,7.00
2022-11-20T13:15:51.346Z,6.97
2022-11-20T13:20:53.740Z,9.02
2022-11-20T13:26:06.405Z,7.70
2022-11-20T13:31:07.988Z,7.88
2022-11-20T13:36:25.248Z,6.45
2022-11-20T13:41:32.106Z,5.95
2022-11-20T13:46:40.488Z,6.07
2022-11-20T13:51:46.911Z,6.70
2022-11-20T13:57:01.080Z,6.15
2022-11-20T14:02:02.620Z,6.78
2022-11-20T14:07:08.312Z,7.03
2022-11-20T14:12:17.744Z,6.70
2022-11-20T14:17:21.379Z,6.53
2022-11-20T14:22:25.135Z,7.00
2022-11-20T14:27:26.037Z,7.30
2022-11-20T14:32:31.478Z,6.95
2022-11-20T14:37:36.264Z,7.00
2022-11-20T14:42:38.365Z,7.07
2022-11-20T14:47:39.430Z,7.32
2022-11-20T14:52:52.828Z,7.15
2022-11-20T14:57:57.923Z,7.68
2022-11-20T15:02:59.056Z,7.90
2022-11-20T15:08:12.594Z,8.18
2022-11-20T15:13:15.551Z,7.82
2022-11-20T15:18:18.815Z,8.02
2022-11-20T15:23:22.076Z,7.57
2022-11-20T15:28:29.479Z,8.45
2022-11-20T15:33:30.482Z,10.02
2022-11-20T15:38:32.736Z,8.25
2022-11-20T15:43:33.699Z,8.80
2022-11-20T15:48:41.999Z,9.05
2022-11-20T15:53:46.903Z,8.90
2022-11-20T15:58:47.837Z,8.77
2022-11-20T16:03:49.379Z,9.85
2022-11-20T16:08:51.645Z,10.15
2022-11-20T16:14:10.809Z,9.65
2022-11-20T16:19:12.931Z,9.50
2022-11-20T16:24:16.511Z,10.13
2022-11-20T16:29:17.368Z,8.98
2022-11-20T16:34:19.581Z,10.55
2022-11-20T16:39:23.915Z,10.05
2022-11-20T16:44:25.601Z,9.63
2022-11-20T16:49:26.950Z,9.52
2022-11-20T16:54:29.269Z,9.43
2022-11-20T16:59:30.081Z,10.15
2022-11-20T17:04:30.876Z,12.05
2022-11-20T17:09:33.023Z,11.38
2022-11-20T17:14:33.894Z,10.75
2022-11-20T17:19:34.711Z,10.85
2022-11-20T17:24:37.197Z,11.90
2022-11-20T17:29:42.018Z,12.68
2022-11-20T17:34:43.036Z,11.70
2022-11-20T17:39:45.602Z,12.02
2022-11-20T17:44:47.399Z,11.65
2022-11-20T17:49:48.239Z,12.27
2022-11-20T17:54:52.567Z,11.82
2022-11-20T17:59:53.538Z,12.73
2022-11-20T18:04:54.695Z,11.95
2022-11-20T18:09:56.870Z,12.35
2022-11-20T18:14:57.730Z,12.23
2022-11-20T18:20:31.069Z,13.02
2022-11-20T18:25:21.080Z,12.48
2022-11-20T18:30:21.919Z,12.32
2022-11-20T18:35:22.742Z,13.13
2022-11-20T18:40:24.991Z,14.48
2022-11-20T18:45:25.758Z,12.43
2022-11-20T18:50:26.732Z,12.55
2022-11-20T18:55:28.934Z,13.38
2022-11-20T19:00:29.839Z,13.07
2022-11-20T19:05:30.731Z,13.95
2022-11-20T19:10:32.882Z,14.05
2022-11-20T19:15:36.986Z,15.30
2022-11-20T19:20:37.834Z,15.30
2022-11-20T19:25:40.084Z,16.55
2022-11-20T19:30:41.756Z,17.48
2022-11-20T19:35:42.527Z,19.10
2022-11-20T19:40:44.956Z,20.00
2022-11-20T19:45:45.793Z,18.45
2022-11-20T19:50:46.685Z,18.63
2022-11-20T19:55:57.895Z,19.25
2022-11-20T20:00:58.794Z,17.45
2022-11-20T20:06:02.629Z,16.80
2022-11-20T20:11:12.845Z,17.35
2022-11-20T20:16:16.038Z,19.15
2022-11-20T20:21:18.727Z,18.30
2022-11-20T20:26:21.633Z,16.35
2022-11-20T20:31:24.537Z,17.75
2022-11-20T20:36:26.212Z,17.55
2022-11-20T20:41:28.406Z,17.83
2022-11-20T20:46:29.178Z,16.83
2022-11-20T20:51:30.251Z,16.80
2022-11-20T20:56:32.519Z,16.75
2022-11-20T21:01:33.604Z,16.52
2022-11-20T21:06:34.446Z,15.93
2022-11-20T21:11:36.622Z,16.13
2022-11-20T21:16:43.865Z,16.30
2022-11-20T21:22:03.871Z,17.48
2022-11-20T21:27:07.356Z,18.42
2022-11-20T21:32:08.157Z,18.35
2022-11-20T21:37:08.918Z,17.30
2022-11-20T21:42:11.148Z,16.70
2022-11-20T21:47:13.333Z,17.33
2022-11-20T21:52:14.144Z,17.83
2022-11-20T21:57:16.357Z,16.40
2022-11-20T22:02:17.337Z,18.40
2022-11-20T22:07:18.303Z,17.40
2022-11-20T22:12:20.947Z,18.17
2022-11-20T22:17:42.589Z,17.90
2022-11-20T22:22:43.385Z,16.85
2022-11-20T22:27:47.423Z,17.05
2022-11-20T22:32:48.183Z,16.88
2022-11-20T22:37:50.382Z,16.95
2022-11-20T22:42:52.522Z,17.23
2022-11-20T22:47:53.413Z,17.55
2022-11-20T22:52:54.406Z,19.08
2022-11-20T22:57:57.417Z,19.15
2022-11-20T23:02:58.205Z,19.13
2022-11-20T23:07:58.997Z,17.90
2022-11-20T23:13:01.186Z,19.45
2022-11-20T23:18:01.952Z,22.20
2022-11-20T23:23:02.719Z,21.48
2022-11-20T23:28:05.130Z,23.55
2022-11-20T23:33:06.096Z,23.83
2022-11-20T23:38:07.027Z,25.85
2022-11-20T23:43:18.246Z,24.38
2022-11-20T23:48:20.174Z,22.25
2022-11-20T23:53:22.024Z,25.05
2022-11-20T23:58:26.028Z,25.85
